Time;durP1;ratioP1;P1;durP2;ratioP2;P2;SDS_P1;SDS_P2;PMS_P1;PMS_P2;Temp;Humidity;BMP_temperature;BMP_pressure;BME280_temperature;BME280_humidity;BME280_pressure;Samples;Min_cycle;Max_cycle;Signal;HPM_P1;HPM_P2
2023/03/08 00:00:13;;;;;;;27.13;12.33;;;;;;;3.04;53.07;98221.66;5011024;28;20480;-64
2023/03/08 00:02:39;;;;;;;24.23;12.57;;;;;;;2.74;52.76;98219.28;5053799;28;20047;-64
2023/03/08 00:05:05;;;;;;;26.53;13.40;;;;;;;2.63;53.00;98227.31;5036781;28;20082;-65
2023/03/08 00:07:32;;;;;;;29.73;13.23;;;;;;;2.61;53.32;98224.03;5020486;28;20051;-64
2023/03/08 00:09:57;;;;;;;29.13;12.07;;;;;;;2.37;53.56;98223.66;5020428;28;20396;-64
2023/03/08 00:12:24;;;;;;;22.90;11.60;;;;;;;2.52;54.00;98224.84;5019963;28;20059;-65
2023/03/08 00:14:50;;;;;;;26.53;13.50;;;;;;;2.43;52.90;98225.72;5035619;28;20533;-65
2023/03/08 00:17:16;;;;;;;28.33;13.03;;;;;;;2.42;52.68;98226.69;5002888;28;20074;-64
2023/03/08 00:19:42;;;;;;;26.73;12.20;;;;;;;2.36;53.45;98229.88;5032606;28;20061;-64
2023/03/08 00:22:08;;;;;;;30.10;12.33;;;;;;;2.30;53.63;98227.81;5019527;28;20179;-64
2023/03/08 00:24:34;;;;;;;23.63;12.40;;;;;;;2.27;52.53;98224.66;5019419;28;20143;-64
2023/03/08 00:27:00;;;;;;;28.87;12.33;;;;;;;2.23;51.81;98231.94;5003272;28;20166;-64
2023/03/08 00:29:26;;;;;;;26.37;12.37;;;;;;;2.23;51.73;98237.19;5020765;28;20060;-64
2023/03/08 00:31:55;;;;;;;25.20;12.53;;;;;;;2.06;52.04;98237.88;5037265;28;20041;-65
2023/03/08 00:34:21;;;;;;;24.20;13.33;;;;;;;1.91;52.37;98239.28;5020448;28;20051;-64
2023/03/08 00:36:47;;;;;;;22.23;12.10;;;;;;;1.93;52.52;98237.38;5036762;28;20044;-64
2023/03/08 00:39:16;;;;;;;26.57;12.63;;;;;;;2.00;52.48;98229.78;5004686;28;20036;-64
2023/03/08 00:41:42;;;;;;;24.97;12.53;;;;;;;1.91;52.50;98235.84;5053129;28;20473;-65
2023/03/08 00:44:08;;;;;;;28.87;12.87;;;;;;;1.94;52.16;98244.25;5019933;28;20040;-64
2023/03/08 00:46:36;;;;;;;27.47;11.70;;;;;;;1.88;52.33;98244.00;5036461;28;20044;-65
2023/03/08 00:49:03;;;;;;;24.63;12.50;;;;;;;1.84;52.42;98243.44;5071955;28;20489;-68
2023/03/08 00:51:30;;;;;;;29.43;13.17;;;;;;;1.73;52.16;98241.78;5007630;28;20032;-64
2023/03/08 00:53:56;;;;;;;26.17;13.60;;;;;;;1.60;52.78;98249.06;5023742;28;20576;-67
2023/03/08 00:56:22;;;;;;;30.80;13.37;;;;;;;1.40;53.13;98236.91;5004270;28;20131;-64
2023/03/08 00:58:48;;;;;;;29.80;14.20;;;;;;;1.33;53.85;98245.44;5054130;28;20059;-65
2023/03/08 01:01:16;;;;;;;31.73;14.43;;;;;;;1.51;54.64;98233.34;5056379;28;20139;-64
2023/03/08 01:03:42;;;;;;;31.90;15.00;;;;;;;1.24;54.63;98236.63;5040277;28;20131;-63
2023/03/08 01:06:12;;;;;;;35.60;15.90;;;;;;;1.46;54.86;98235.56;5043437;28;20097;-65
2023/03/08 01:08:40;;;;;;;41.00;16.42;;;;;;;1.02;54.73;98241.22;5027395;28;20032;-67
2023/03/08 01:11:19;;;;;;;34.07;15.73;;;;;;;1.23;55.44;98241.97;5076216;28;20691;-64
2023/03/08 01:13:45;;;;;;;41.63;16.87;;;;;;;0.71;54.99;98239.59;5076584;28;20344;-64
2023/03/08 01:16:19;;;;;;;46.27;16.80;;;;;;;0.84;55.84;98234.97;5043158;28;20111;-65
2023/03/08 01:18:46;;;;;;;64.23;18.67;;;;;;;0.64;55.84;98233.22;5043137;28;20044;-66
2023/03/08 01:21:12;;;;;;;51.67;19.60;;;;;;;0.31;55.88;98223.03;5060038;28;20052;-64
2023/03/08 01:23:41;;;;;;;71.10;19.90;;;;;;;0.28;56.53;98231.13;5043306;28;20097;-63
2023/03/08 01:26:11;;;;;;;106.87;21.23;;;;;;;0.55;56.40;98224.41;5026293;28;20471;-64
2023/03/08 01:28:37;;;;;;;133.50;20.57;;;;;;;0.30;56.71;98223.97;5026349;28;20048;-64
2023/03/08 01:31:08;;;;;;;253.07;24.13;;;;;;;0.33;56.55;98215.88;5043535;28;20078;-65
2023/03/08 01:33:37;;;;;;;85.60;18.35;;;;;;;0.04;56.74;98218.31;5026893;28;20542;-64
2023/03/08 01:36:05;;;;;;;152.37;19.80;;;;;;;0.16;56.79;98217.28;5026314;28;20040;-64
2023/03/08 01:38:42;;;;;;;100.07;19.60;;;;;;;-0.05;56.53;98212.06;5062626;28;20068;-65
2023/03/08 01:41:20;;;;;;;149.10;19.53;;;;;;;0.23;56.70;98223.63;5059245;28;20048;-64
2023/03/08 01:43:46;;;;;;;59.43;16.60;;;;;;;-0.18;56.17;98221.88;5042700;28;20076;-67
2023/03/08 01:46:26;;;;;;;36.73;15.03;;;;;;;-0.20;57.48;98208.09;5042559;28;20101;-64
2023/03/08 01:49:17;;;;;;;34.63;14.93;;;;;;;-0.15;57.35;98223.38;5060902;28;20039;-64
2023/03/08 01:51:47;;;;;;;43.03;15.40;;;;;;;-0.71;57.51;98224.56;5025933;28;20059;-65
2023/03/08 01:54:25;;;;;;;74.13;16.33;;;;;;;-0.27;57.60;98214.81;5059078;28;20055;-64
2023/03/08 01:56:54;;;;;;;38.33;16.70;;;;;;;-0.34;57.18;98218.03;5058816;28;20123;-64
2023/03/08 01:59:21;;;;;;;209.73;19.70;;;;;;;-0.38;57.24;98220.06;5057958;28;20224;-64
2023/03/08 02:01:49;;;;;;;175.60;20.00;;;;;;;-0.75;57.45;98218.75;5041497;28;20185;-64
2023/03/08 02:04:15;;;;;;;50.07;18.17;;;;;;;-0.80;57.37;98220.88;5041108;28;20107;-64
2023/03/08 02:06:44;;;;;;;134.20;18.60;;;;;;;-0.74;57.83;98223.00;5041896;28;20044;-64
2023/03/08 02:09:11;;;;;;;118.00;18.17;;;;;;;-0.61;57.33;98236.72;5041384;28;20133;-64
2023/03/08 02:11:38;;;;;;;49.33;16.50;;;;;;;-0.66;57.92;98233.66;5025033;28;20036;-64
2023/03/08 02:14:04;;;;;;;169.73;21.60;;;;;;;-0.84;57.76;98234.28;5042209;28;20086;-65
2023/03/08 02:16:32;;;;;;;105.87;19.83;;;;;;;-0.90;57.47;98235.63;5042013;28;20035;-64
2023/03/08 02:19:07;;;;;;;125.83;18.43;;;;;;;-0.63;57.80;98236.00;5042717;28;20044;-63
2023/03/08 02:21:34;;;;;;;288.83;23.47;;;;;;;-1.15;57.49;98245.47;5075245;28;20059;-63
2023/03/08 02:24:23;;;;;;;523.63;29.33;;;;;;;-0.64;57.36;98239.59;5025617;28;20434;-67
2023/03/08 02:26:50;;;;;;;563.43;32.40;;;;;;;-1.00;56.61;98237.28;5058212;28;20058;-63
2023/03/08 02:29:17;;;;;;;636.90;29.67;;;;;;;-1.31;56.36;98240.63;5041826;28;20043;-63
2023/03/08 02:31:43;;;;;;;632.53;31.83;;;;;;;-1.47;56.17;98241.91;5025444;28;20040;-63
2023/03/08 02:34:09;;;;;;;417.37;25.17;;;;;;;-1.45;56.22;98248.66;5041829;28;20472;-61
2023/03/08 02:36:34;;;;;;;541.30;27.97;;;;;;;-1.68;55.81;98241.78;5041252;28;20052;-64
2023/03/08 02:39:00;;;;;;;472.80;24.20;;;;;;;-1.77;55.82;98240.69;5042201;28;20044;-64
2023/03/08 02:41:28;;;;;;;521.40;25.47;;;;;;;-1.81;55.94;98236.66;5042443;28;20069;-64
2023/03/08 02:43:54;;;;;;;482.23;26.67;;;;;;;-1.99;56.06;98248.47;5041703;28;20044;-64
2023/03/08 02:46:19;;;;;;;401.17;20.10;;;;;;;-2.15;56.44;98254.88;5041126;28;20062;-64
2023/03/08 02:48:45;;;;;;;454.63;22.57;;;;;;;-2.26;56.50;98252.28;5025055;28;20051;-64
2023/03/08 02:51:12;;;;;;;312.90;16.97;;;;;;;-2.29;56.76;98253.31;5041575;28;20046;-64
2023/03/08 02:53:37;;;;;;;238.80;16.47;;;;;;;-2.06;56.73;98241.22;5024833;28;20389;-64
2023/03/08 02:56:04;;;;;;;532.03;23.57;;;;;;;-2.09;55.97;98257.88;5057851;28;20040;-65
2023/03/08 02:58:30;;;;;;;281.77;17.33;;;;;;;-2.13;55.82;98247.81;5024981;28;20051;-64
2023/03/08 03:00:56;;;;;;;380.00;18.70;;;;;;;-2.06;56.22;98255.03;5024487;28;20059;-64
2023/03/08 03:03:22;;;;;;;431.50;21.27;;;;;;;-2.17;56.14;98251.59;5041050;28;20087;-64
2023/03/08 03:05:50;;;;;;;330.00;19.23;;;;;;;-2.28;55.91;98256.75;5025038;28;20397;-64
2023/03/08 03:08:20;;;;;;;342.70;16.77;;;;;;;-2.32;56.22;98263.94;5041559;28;20146;-64
2023/03/08 03:10:46;;;;;;;376.03;17.37;;;;;;;-2.30;56.08;98271.63;5040457;28;20142;-64
2023/03/08 03:13:13;;;;;;;188.13;14.07;;;;;;;-2.38;56.66;98246.19;5057609;28;20483;-63
2023/03/08 03:15:39;;;;;;;213.13;16.00;;;;;;;-2.40;57.34;98265.44;5040791;28;20040;-64
2023/03/08 03:18:05;;;;;;;237.27;16.30;;;;;;;-2.33;57.06;98269.25;5040766;28;20044;-65
2023/03/08 03:20:32;;;;;;;94.23;13.37;;;;;;;-2.15;57.14;98267.88;5024974;28;20059;-65
2023/03/08 03:22:58;;;;;;;50.87;11.77;;;;;;;-2.18;57.10;98261.16;5041059;28;20404;-64
2023/03/08 03:25:31;;;;;;;94.93;13.40;;;;;;;-2.14;56.91;98251.38;5043028;28;20043;-64
2023/03/08 03:27:57;;;;;;;114.13;12.53;;;;;;;-2.15;56.79;98253.13;5024231;28;20139;-64
2023/03/08 03:30:26;;;;;;;139.20;13.13;;;;;;;-2.09;57.25;98263.06;5041964;28;20044;-63
2023/03/08 03:32:52;;;;;;;150.70;14.90;;;;;;;-2.07;57.52;98260.34;5040693;28;20059;-64
2023/03/08 03:35:24;;;;;;;155.23;14.50;;;;;;;-2.04;57.48;98254.94;5041433;28;20931;-65
2023/03/08 03:37:51;;;;;;;231.27;15.67;;;;;;;-1.90;57.76;98246.94;5024592;28;20905;-64
2023/03/08 03:40:17;;;;;;;207.73;16.77;;;;;;;-1.76;57.73;98244.13;5040715;28;20067;-64
2023/03/08 03:42:48;;;;;;;135.73;15.07;;;;;;;-1.43;57.45;98240.75;5024824;28;20055;-64
2023/03/08 03:45:14;;;;;;;87.93;13.20;;;;;;;-1.63;57.35;98236.22;5040381;28;20087;-64
2023/03/08 03:47:39;;;;;;;91.87;13.33;;;;;;;-1.50;57.52;98242.97;5024136;28;20040;-63
2023/03/08 03:50:08;;;;;;;105.23;14.73;;;;;;;-1.34;57.75;98235.66;5041003;28;20040;-64
2023/03/08 03:52:48;;;;;;;72.40;13.38;;;;;;;-1.40;57.70;98248.31;5027678;28;20044;-64
2023/03/08 03:55:14;;;;;;;76.33;14.13;;;;;;;-1.33;57.67;98247.72;5057065;28;20048;-64
2023/03/08 03:57:42;;;;;;;91.63;14.87;;;;;;;-1.07;58.02;98243.91;5057041;28;20044;-64
2023/03/08 04:00:12;;;;;;;123.70;13.85;;;;;;;-1.06;57.80;98252.56;5041213;28;20479;-63
2023/03/08 04:02:46;;;;;;;57.33;14.90;;;;;;;-1.05;57.71;98252.44;5042498;28;20107;-64
2023/03/08 04:05:15;;;;;;;70.43;15.63;;;;;;;-0.99;57.65;98256.34;5024763;28;20039;-65
2023/03/08 04:07:45;;;;;;;98.15;15.23;;;;;;;-0.99;58.09;98246.75;5025050;28;20050;-65
2023/03/08 04:10:11;;;;;;;95.10;16.77;;;;;;;-0.88;57.80;98251.97;5023865;28;20042;-64
2023/03/08 04:12:38;;;;;;;117.13;17.07;;;;;;;-0.88;58.23;98251.97;5057597;28;20044;-65
2023/03/08 04:15:05;;;;;;;146.77;19.00;;;;;;;-0.67;59.03;98258.06;5040557;28;20113;-62
2023/03/08 04:17:32;;;;;;;66.70;16.80;;;;;;;-0.54;59.21;98263.16;5040626;28;20052;-63
2023/03/08 04:19:58;;;;;;;101.20;17.83;;;;;;;-0.53;58.64;98264.78;5023726;28;20044;-61
2023/03/08 04:22:26;;;;;;;101.07;19.93;;;;;;;-0.47;59.11;98248.66;5024635;28;20048;-63
2023/03/08 04:24:59;;;;;;;87.53;17.27;;;;;;;-0.26;57.68;98266.00;5029430;28;20043;-62
2023/03/08 04:27:34;;;;;;;55.53;17.50;;;;;;;-0.18;57.65;98268.81;5046888;28;20121;-63
2023/03/08 04:30:01;;;;;;;101.67;18.60;;;;;;;-0.15;57.97;98278.16;5044121;28;20413;-65
2023/03/08 04:32:32;;;;;;;61.37;18.97;;;;;;;-0.15;57.54;98280.78;5062275;28;20119;-65
2023/03/08 04:34:58;;;;;;;54.90;17.43;;;;;;;-0.03;56.94;98275.41;5043765;28;20490;-65
2023/03/08 04:37:29;;;;;;;97.03;19.65;;;;;;;0.03;56.78;98287.13;5060480;28;20051;-65
2023/03/08 04:40:04;;;;;;;56.50;18.33;;;;;;;0.02;56.62;98308.94;5045758;28;20059;-65
2023/03/08 04:42:34;;;;;;;55.97;18.43;;;;;;;-0.03;56.92;98290.22;5044686;28;20189;-66
2023/03/08 04:45:01;;;;;;;59.33;20.83;;;;;;;-0.22;56.62;98285.69;5043760;28;20047;-65
2023/03/08 04:47:29;;;;;;;45.47;18.20;;;;;;;-0.03;57.37;98306.72;5060907;28;20133;-65
2023/03/08 04:49:55;;;;;;;47.23;17.23;;;;;;;0.01;57.79;98302.06;5043906;28;20499;-65
2023/03/08 04:52:25;;;;;;;50.97;17.73;;;;;;;0.43;58.36;98292.50;5027719;28;20036;-68
2023/03/08 04:54:52;;;;;;;48.30;18.13;;;;;;;0.26;57.56;98306.13;5060722;28;20456;-65
2023/03/08 04:57:24;;;;;;;46.47;18.10;;;;;;;0.15;57.91;98306.16;5061324;28;20357;-65
2023/03/08 04:59:53;;;;;;;54.80;17.17;;;;;;;0.06;58.74;98294.72;5044095;28;20060;-65
2023/03/08 05:02:21;;;;;;;53.90;18.63;;;;;;;0.52;59.11;98305.63;5027243;28;20476;-65
2023/03/08 05:04:47;;;;;;;50.07;18.13;;;;;;;0.47;58.64;98301.72;5060373;28;20036;-65
2023/03/08 05:07:13;;;;;;;48.17;17.40;;;;;;;0.36;58.71;98297.38;5060400;28;20480;-65
2023/03/08 05:09:40;;;;;;;45.03;17.73;;;;;;;0.62;58.55;98298.66;5043743;28;20051;-74
2023/03/08 05:12:06;;;;;;;42.30;16.47;;;;;;;0.94;58.06;98295.94;5043777;28;20345;-66
2023/03/08 05:15:01;;;;;;;39.03;15.93;;;;;;;0.80;57.91;98297.09;5054469;28;20410;-65
2023/03/08 05:17:29;;;;;;;41.07;16.67;;;;;;;0.96;57.80;98291.41;5060601;28;20048;-64
2023/03/08 05:19:55;;;;;;;35.30;15.77;;;;;;;1.02;57.45;98299.53;5076703;28;20040;-66
2023/03/08 05:22:29;;;;;;;40.10;15.27;;;;;;;1.09;57.90;98277.13;5029068;28;20044;-65
2023/03/08 05:24:56;;;;;;;33.33;15.07;;;;;;;1.38;56.98;98293.75;5060191;28;20043;-65
2023/03/08 05:27:23;;;;;;;32.53;15.27;;;;;;;1.68;56.82;98285.84;5043385;28;20036;-66
2023/03/08 05:29:53;;;;;;;29.27;14.00;;;;;;;1.80;56.17;98278.69;5027105;28;20400;-65
2023/03/08 05:32:18;;;;;;;37.97;15.90;;;;;;;1.76;55.80;98274.69;5042884;28;20044;-65
2023/03/08 05:34:44;;;;;;;36.80;16.30;;;;;;;1.84;55.47;98277.47;5076261;28;20135;-66
2023/03/08 05:37:15;;;;;;;;;;;;;;;2.49;54.65;98272.28;5060804;28;20051;-65
2023/03/08 05:39:43;;;;;;;29.27;13.77;;;;;;;2.32;54.80;98274.81;5043131;28;19923;-65
2023/03/08 05:42:16;;;;;;;34.17;15.67;;;;;;;2.31;54.13;98287.09;5061063;28;20047;-65
2023/03/08 05:44:45;;;;;;;32.33;14.20;;;;;;;2.31;53.51;98275.78;5027163;28;20537;-66
2023/03/08 05:47:13;;;;;;;26.17;13.23;;;;;;;2.38;53.08;98282.13;5043353;28;20186;-65
2023/03/08 05:49:39;;;;;;;31.73;14.87;;;;;;;2.49;53.81;98284.59;5059787;28;20048;-66
2023/03/08 05:52:06;;;;;;;29.43;14.30;;;;;;;2.49;53.17;98282.78;5026287;28;20036;-64
2023/03/08 05:54:33;;;;;;;34.83;14.93;;;;;;;2.46;53.18;98285.69;5042911;28;20040;-64
2023/03/08 05:57:02;;;;;;;25.33;12.50;;;;;;;2.38;53.25;98305.69;5043638;28;20145;-65
2023/03/08 05:59:29;;;;;;;28.50;13.70;;;;;;;2.32;54.19;98295.78;5032462;28;20075;-64
2023/03/08 06:01:59;;;;;;;26.80;13.80;;;;;;;2.40;53.74;98290.69;5025296;28;20047;-62
2023/03/08 06:04:52;;;;;;;25.77;12.37;;;;;;;2.36;53.73;98300.59;5062900;28;20353;-63
2023/03/08 06:07:20;;;;;;;22.50;10.53;;;;;;;2.17;53.89;98307.66;5039986;28;20123;-67
2023/03/08 06:09:52;;;;;;;15.70;8.60;;;;;;;1.99;54.30;98315.34;5055364;28;20508;-62
2023/03/08 06:12:18;;;;;;;19.07;9.57;;;;;;;1.92;54.67;98301.16;5046126;28;20502;-60
2023/03/08 06:14:47;;;;;;;17.30;9.60;;;;;;;1.94;55.41;98298.41;5040894;28;20083;-61
2023/03/08 06:17:15;;;;;;;18.57;9.17;;;;;;;2.03;55.33;98308.06;5026394;28;20062;-63
2023/03/08 06:19:45;;;;;;;19.07;9.10;;;;;;;2.30;54.87;98295.09;5059009;28;20043;-62
2023/03/08 06:22:11;;;;;;;13.20;8.23;;;;;;;2.01;54.45;98297.72;5042630;28;20052;-63
2023/03/08 06:24:38;;;;;;;15.97;8.50;;;;;;;2.21;54.36;98299.38;5058324;28;20032;-63
2023/03/08 06:27:06;;;;;;;17.27;8.90;;;;;;;2.35;54.06;98296.34;5058998;28;20130;-59
2023/03/08 06:29:32;;;;;;;15.07;8.80;;;;;;;2.58;53.78;98296.84;5042050;28;20122;-59
2023/03/08 06:32:00;;;;;;;17.03;8.77;;;;;;;2.49;53.54;98298.50;5042266;28;20680;-62
2023/03/08 06:34:26;;;;;;;16.10;8.63;;;;;;;2.45;53.68;98291.06;5041658;28;20032;-61
2023/03/08 06:36:58;;;;;;;14.87;8.30;;;;;;;2.60;53.20;98284.44;5025651;28;20089;-60
2023/03/08 06:39:25;;;;;;;15.40;8.50;;;;;;;2.99;52.62;98275.47;5023382;28;20059;-62
2023/03/08 06:41:51;;;;;;;13.50;7.37;;;;;;;2.80;51.81;98281.59;5053937;28;20087;-62
2023/03/08 06:44:17;;;;;;;12.10;6.27;;;;;;;2.78;51.91;98270.44;5054785;28;20593;-63
2023/03/08 06:46:43;;;;;;;12.03;7.20;;;;;;;3.21;52.15;98268.06;5054468;28;20045;-64
2023/03/08 06:49:09;;;;;;;10.47;6.97;;;;;;;3.23;51.12;98260.88;5055446;28;20483;-62
2023/03/08 06:51:37;;;;;;;11.47;7.37;;;;;;;3.39;51.14;98253.22;5036493;28;20082;-59
2023/03/08 06:54:03;;;;;;;13.07;7.37;;;;;;;3.10;51.25;98243.81;5032785;28;20472;-60
2023/03/08 06:56:29;;;;;;;11.90;7.13;;;;;;;2.88;51.51;98249.44;5039922;28;20051;-64
2023/03/08 06:58:55;;;;;;;13.13;7.90;;;;;;;2.44;52.30;98240.47;5039377;28;20036;-61
2023/03/08 07:01:21;;;;;;;13.57;7.90;;;;;;;2.99;52.28;98236.13;5059095;28;20036;-63
2023/03/08 07:03:47;;;;;;;14.93;7.17;;;;;;;2.91;51.45;98254.38;5037206;28;20063;-62
2023/03/08 07:06:13;;;;;;;13.97;7.63;;;;;;;2.74;51.20;98245.47;5008643;28;20081;-62
2023/03/08 07:08:40;;;;;;;13.73;6.87;;;;;;;2.46;52.06;98241.13;5057752;28;20040;-67
2023/03/08 07:11:08;;;;;;;12.43;6.73;;;;;;;2.75;52.06;98225.34;5074489;28;20588;-65
2023/03/08 07:13:36;;;;;;;16.67;8.27;;;;;;;2.94;52.22;98222.63;5088302;28;20047;-67
2023/03/08 07:16:07;;;;;;;17.73;8.70;;;;;;;3.63;52.56;98210.63;5064210;28;20036;-66
2023/03/08 07:18:33;;;;;;;13.07;8.20;;;;;;;3.59;50.86;98211.06;5041127;28;20054;-65
2023/03/08 07:20:59;;;;;;;13.20;7.67;;;;;;;3.71;49.61;98217.75;5024500;28;20039;-67
2023/03/08 07:23:24;;;;;;;11.03;7.00;;;;;;;3.45;49.10;98217.66;5040586;28;20196;-66
2023/03/08 07:25:50;;;;;;;10.23;6.47;;;;;;;3.34;49.41;98228.38;5057589;28;20067;-65
2023/03/08 07:28:16;;;;;;;12.90;7.10;;;;;;;3.21;49.65;98206.91;5057497;28;20474;-65
2023/03/08 07:30:52;;;;;;;8.43;6.33;;;;;;;3.64;49.17;98221.97;5041030;28;20040;-65
2023/03/08 07:33:21;;;;;;;14.87;7.07;;;;;;;3.20;49.71;98242.81;5040579;28;20047;-67
2023/03/08 07:35:47;;;;;;;16.00;7.20;;;;;;;3.45;49.41;98221.13;5057883;28;20086;-65
2023/03/08 07:38:13;;;;;;;14.23;7.67;;;;;;;3.30;50.08;98211.28;5040960;28;20040;-61
2023/03/08 07:40:39;;;;;;;13.13;7.60;;;;;;;3.59;50.08;98208.44;5040751;28;20051;-64
2023/03/08 07:43:06;;;;;;;12.40;7.67;;;;;;;3.87;49.22;98215.28;5057177;28;20043;-65
2023/03/08 07:45:44;;;;;;;14.43;8.37;;;;;;;3.56;50.09;98214.00;5043806;28;20076;-63
2023/03/08 07:48:09;;;;;;;11.33;6.87;;;;;;;3.81;48.95;98205.38;5024027;28;20128;-64
2023/03/08 07:50:35;;;;;;;16.63;8.57;;;;;;;3.98;49.30;98194.06;5040382;28;20544;-62
2023/03/08 07:53:03;;;;;;;9.90;6.23;;;;;;;4.47;47.43;98236.31;5024300;28;20134;-63
2023/03/08 07:55:29;;;;;;;10.93;6.93;;;;;;;4.72;46.46;98205.75;5040918;28;20087;-63
2023/03/08 07:57:54;;;;;;;12.30;7.40;;;;;;;4.40;47.35;98202.88;5040438;28;20128;-62
2023/03/08 08:00:20;;;;;;;13.20;7.90;;;;;;;4.59;46.82;98206.16;5061264;28;20048;-61
2023/03/08 08:02:47;;;;;;;13.40;6.33;;;;;;;4.17;46.96;98207.81;5028604;28;20120;-64
2023/03/08 08:05:13;;;;;;;10.73;6.80;;;;;;;4.49;46.65;98202.00;5061310;28;20488;-65
2023/03/08 08:07:39;;;;;;;10.60;6.83;;;;;;;5.08;46.16;98220.38;5044352;28;20043;-61
2023/03/08 08:10:07;;;;;;;16.30;7.57;;;;;;;5.64;46.00;98188.13;5077598;28;20048;-64
2023/03/08 08:12:33;;;;;;;10.43;6.77;;;;;;;5.13;44.88;98189.97;5077671;28;20036;-62
2023/03/08 08:14:59;;;;;;;10.03;6.70;;;;;;;4.87;45.10;98201.53;5077759;28;20044;-61
2023/03/08 08:17:25;;;;;;;12.17;6.77;;;;;;;5.29;45.13;98197.06;5027659;28;20048;-61
2023/03/08 08:19:51;;;;;;;11.97;6.80;;;;;;;5.23;45.28;98193.28;5044436;28;20048;-60
2023/03/08 08:22:17;;;;;;;11.73;6.60;;;;;;;4.90;45.34;98191.53;5028234;28;20441;-68
2023/03/08 08:24:43;;;;;;;13.03;7.20;;;;;;;4.88;45.52;98190.84;5027879;28;20050;-61
2023/03/08 08:27:08;;;;;;;9.63;6.00;;;;;;;4.43;45.61;98192.91;5044216;28;20129;-63
2023/03/08 08:29:36;;;;;;;9.03;5.70;;;;;;;4.53;46.38;98198.88;5060704;28;20052;-63
2023/03/08 08:32:03;;;;;;;11.20;7.13;;;;;;;4.99;46.48;98201.09;5042644;28;20074;-62
2023/03/08 08:34:29;;;;;;;12.27;6.93;;;;;;;5.39;46.15;98192.50;5058749;28;20480;-63
2023/03/08 08:36:55;;;;;;;9.70;6.03;;;;;;;5.11;44.51;98199.00;5041956;28;20048;-62
2023/03/08 08:39:21;;;;;;;8.67;6.47;;;;;;;4.89;45.23;98189.03;5026645;28;20514;-63
2023/03/08 08:41:50;;;;;;;14.83;7.70;;;;;;;5.86;45.50;98177.81;5042835;28;20044;-62
2023/03/08 08:44:16;;;;;;;13.70;7.70;;;;;;;5.53;44.86;98191.06;5060827;28;20074;-62
2023/03/08 08:46:42;;;;;;;12.87;7.27;;;;;;;5.50;44.31;98189.59;5027379;28;20044;-60
2023/03/08 08:49:09;;;;;;;15.30;8.17;;;;;;;5.83;44.69;98174.66;5060744;28;20056;-64
2023/03/08 08:51:35;;;;;;;10.80;7.10;;;;;;;5.63;44.61;98166.22;5060568;28;20040;-61
2023/03/08 08:54:01;;;;;;;16.20;7.20;;;;;;;5.54;44.59;98185.63;5027181;28;20059;-63
2023/03/08 08:56:27;;;;;;;8.50;6.60;;;;;;;5.33;44.60;98185.25;5043406;28;20126;-61
2023/03/08 08:58:56;;;;;;;12.77;7.00;;;;;;;5.62;44.72;98158.50;5027372;28;20048;-64
2023/03/08 09:01:24;;;;;;;9.53;6.10;;;;;;;5.17;44.60;98151.00;5094728;28;20071;-63
2023/03/08 09:03:51;;;;;;;11.20;6.87;;;;;;;5.20;44.99;98158.56;5060225;28;20142;-65
2023/03/08 09:06:18;;;;;;;12.60;6.77;;;;;;;5.49;44.90;98153.69;5043705;28;20047;-63
2023/03/08 09:08:48;;;;;;;11.53;7.20;;;;;;;6.16;44.53;98145.53;5043096;28;20155;-63
2023/03/08 09:11:14;;;;;;;11.17;7.20;;;;;;;6.23;42.99;98162.31;5060174;28;20101;-64
2023/03/08 09:13:41;;;;;;;10.80;6.80;;;;;;;5.92;42.81;98156.06;5043337;28;20044;-62
2023/03/08 09:16:28;;;;;;;11.93;8.00;;;;;;;5.88;43.03;98141.59;5059628;28;20479;-63
2023/03/08 09:18:58;;;;;;;12.67;7.43;;;;;;;5.90;43.31;98139.63;5044134;28;20040;-64
2023/03/08 09:21:25;;;;;;;13.20;8.13;;;;;;;6.10;42.92;98140.94;5059799;28;20086;-62
2023/03/08 09:23:51;;;;;;;15.37;8.50;;;;;;;5.53;42.85;98146.31;5026843;28;20048;-69
2023/03/08 09:26:17;;;;;;;12.73;7.77;;;;;;;6.38;43.65;98134.28;5060048;28;20066;-63
2023/03/08 09:28:43;;;;;;;16.67;9.10;;;;;;;5.98;42.68;98122.97;5059087;28;20479;-65
2023/03/08 09:31:13;;;;;;;12.13;8.70;;;;;;;6.07;43.51;98114.06;5025923;28;20081;-62
2023/03/08 09:33:41;;;;;;;15.03;10.20;;;;;;;5.96;42.94;98115.25;5076143;28;20048;-64
2023/03/08 09:36:07;;;;;;;13.00;8.67;;;;;;;5.82;42.94;98110.63;5059339;28;20043;-63
2023/03/08 09:38:33;;;;;;;13.23;8.73;;;;;;;6.42;42.09;98100.50;5075367;28;20468;-64
2023/03/08 09:41:28;;;;;;;16.27;9.27;;;;;;;7.36;40.84;98107.31;5025847;28;20059;-64
2023/03/08 09:44:12;;;;;;;14.67;9.50;;;;;;;7.22;40.49;98091.38;5006878;28;20067;-60
2023/03/08 09:46:45;;;;;;;12.87;8.40;;;;;;;7.37;40.52;98098.38;5058596;28;20058;-63
2023/03/08 09:49:15;;;;;;;15.07;9.00;;;;;;;7.67;40.41;98089.56;5042026;28;20794;-61
2023/03/08 09:51:44;;;;;;;14.70;8.53;;;;;;;8.00;40.68;98090.94;5042256;28;20044;-66
2023/03/08 09:54:18;;;;;;;19.30;9.60;;;;;;;8.17;40.99;98078.38;5058539;28;20067;-65
2023/03/08 09:56:50;;;;;;;16.00;9.47;;;;;;;7.50;39.99;98080.16;5042093;28;20040;-65
2023/03/08 09:59:27;;;;;;;16.57;9.27;;;;;;;6.81;41.01;98065.22;5041845;28;20140;-66
2023/03/08 10:02:30;;;;;;;17.53;10.20;;;;;;;6.78;41.85;98054.19;5041850;28;20387;-66
2023/03/08 10:05:11;;;;;;;19.17;10.43;;;;;;;6.71;41.78;98055.88;5058226;28;20036;-65
2023/03/08 10:07:37;;;;;;;;;;;;;;;7.10;42.15;98040.00;5042442;28;20151;-66
2023/03/08 10:10:25;;;;;;;17.10;9.17;;;;;;;7.58;41.62;98037.00;5041828;28;20408;-66
2023/03/08 10:12:54;;;;;;;17.67;10.10;;;;;;;7.39;41.28;98022.47;5042114;28;20442;-73
2023/03/08 10:15:22;;;;;;;17.80;9.40;;;;;;;7.71;40.31;98019.53;5058737;28;20059;-64
2023/03/08 10:18:13;;;;;;;18.10;9.47;;;;;;;8.29;39.29;98019.59;5042006;28;20369;-64
2023/03/08 10:20:40;;;;;;;16.67;9.38;;;;;;;8.04;39.49;98020.84;5057583;28;20048;-63
2023/03/08 10:23:15;;;;;;;19.20;10.53;;;;;;;7.96;39.08;98023.59;5041596;28;20113;-65
2023/03/08 10:25:42;;;;;;;18.10;10.30;;;;;;;7.71;39.38;98021.34;5058196;28;20044;-61
2023/03/08 10:28:14;;;;;;;18.97;11.37;;;;;;;7.81;40.15;98032.50;5074817;28;20102;-63
2023/03/08 10:30:47;;;;;;;19.77;10.60;;;;;;;7.88;40.68;98022.84;5042015;28;20048;-62
2023/03/08 10:33:18;;;;;;;20.40;10.73;;;;;;;7.02;40.98;98008.34;5058935;28;20134;-64
2023/03/08 10:36:04;;;;;;;18.93;10.93;;;;;;;6.76;41.35;98001.59;5091850;28;20077;-64
2023/03/08 10:38:34;;;;;;;22.00;11.47;;;;;;;7.04;41.03;98014.28;5059112;28;20130;-64
2023/03/08 10:41:18;;;;;;;21.10;11.50;;;;;;;7.05;40.96;97989.53;5058125;28;20035;-64
2023/03/08 10:43:46;;;;;;;18.83;10.93;;;;;;;6.88;41.18;97973.84;5041631;28;20475;-65
2023/03/08 10:46:14;;;;;;;16.50;10.57;;;;;;;6.16;41.66;97971.59;5058096;28;20040;-65
2023/03/08 10:48:41;;;;;;;17.90;11.83;;;;;;;6.50;42.72;97969.41;5058144;28;20397;-64
2023/03/08 10:51:16;;;;;;;17.70;11.20;;;;;;;7.03;41.71;97955.41;5058103;28;20044;-65
2023/03/08 10:53:55;;;;;;;19.43;10.20;;;;;;;7.10;40.75;97963.44;5025169;28;20161;-65
2023/03/08 10:56:43;;;;;;;19.10;10.80;;;;;;;6.87;40.46;97977.44;5058344;28;20059;-64
2023/03/08 10:59:26;;;;;;;18.17;10.80;;;;;;;7.24;40.56;97939.75;5057860;28;20071;-64
2023/03/08 11:01:58;;;;;;;19.57;10.87;;;;;;;7.56;40.22;97941.25;5092585;28;20035;-62
2023/03/08 11:04:25;;;;;;;18.90;10.63;;;;;;;7.82;39.90;97939.00;5088204;28;20052;-71
2023/03/08 11:06:52;;;;;;;16.83;10.03;;;;;;;8.06;38.86;97944.81;5037890;28;20048;-65
2023/03/08 11:09:22;;;;;;;14.43;9.37;;;;;;;8.37;38.00;97937.53;5037892;28;20048;-64
2023/03/08 11:11:48;;;;;;;14.95;9.70;;;;;;;7.96;38.05;97954.03;5037583;28;20048;-65
2023/03/08 11:14:15;;;;;;;15.20;9.80;;;;;;;7.58;38.06;97941.91;5037938;28;21189;-70
2023/03/08 11:17:10;;;;;;;13.93;8.87;;;;;;;7.64;39.12;97941.16;5005076;28;20079;-63
2023/03/08 11:20:00;;;;;;;15.57;9.43;;;;;;;7.60;38.66;97910.81;5035699;28;20471;-64
2023/03/08 11:22:57;;;;;;;15.27;10.13;;;;;;;8.01;38.84;97901.44;5038410;28;20102;-65
2023/03/08 11:25:47;;;;;;;13.63;9.43;;;;;;;8.41;37.74;97903.59;5037847;28;20483;-65
2023/03/08 11:28:25;;;;;;;15.53;9.83;;;;;;;7.74;37.78;97892.34;5054264;28;20040;-65
2023/03/08 11:31:07;;;;;;;15.70;9.93;;;;;;;8.25;38.66;97880.84;5021269;28;20395;-66
2023/03/08 11:33:39;;;;;;;14.80;9.97;;;;;;;7.57;38.08;97880.31;5037393;28;20044;-65
2023/03/08 11:36:44;;;;;;;16.03;9.63;;;;;;;8.05;38.27;97873.63;5070520;28;20444;-65